Time;durP1;ratioP1;P1;durP2;ratioP2;P2;SDS_P1;SDS_P2;PMS_P1;PMS_P2;Temp;Humidity;BMP_temperature;BMP_pressure;BME280_temperature;BME280_humidity;BME280_pressure;Samples;Min_cycle;Max_cycle;Signal;HPM_P1;HPM_P2
2020/12/05 00:02:09;;;;;;;53.08;26.27;;;-3276.60;95.90;;;;;;4984477;28;20060;-67
2020/12/05 00:04:35;;;;;;;53.22;25.20;;;-3276.50;95.70;;;;;;4983145;28;20256;-67
2020/12/05 00:07:01;;;;;;;49.33;24.73;;;-3276.40;95.60;;;;;;4983439;28;20033;-67
2020/12/05 00:09:26;;;;;;;55.65;25.60;;;-3276.40;95.70;;;;;;5010826;28;20098;-68
2020/12/05 00:11:52;;;;;;;54.75;25.80;;;-3276.40;95.80;;;;;;5027804;28;20029;-67
2020/12/05 00:14:17;;;;;;;52.80;24.30;;;-3276.60;95.90;;;;;;4984769;28;20031;-67
2020/12/05 00:16:43;;;;;;;63.38;27.80;;;-3276.70;95.90;;;;;;4982198;28;20466;-65
2020/12/05 00:19:11;;;;;;;53.47;25.60;;;-3276.70;95.70;;;;;;4983954;28;20030;-68
2020/12/05 00:21:36;;;;;;;54.70;26.85;;;0.00;95.60;;;;;;4982230;28;20060;-68
2020/12/05 00:24:02;;;;;;;56.42;26.92;;;0.00;95.50;;;;;;4975643;28;20107;-68
2020/12/05 00:26:27;;;;;;;50.13;25.40;;;0.00;95.50;;;;;;4983227;28;20042;-67
2020/12/05 00:28:53;;;;;;;58.70;27.30;;;0.10;95.40;;;;;;4983522;28;20033;-70
2020/12/05 00:31:20;;;;;;;50.50;26.17;;;0.10;95.20;;;;;;4983367;28;20479;-67
2020/12/05 00:33:46;;;;;;;49.83;24.98;;;0.00;95.10;;;;;;4983549;28;20026;-67
2020/12/05 00:36:15;;;;;;;58.40;25.23;;;0.00;95.20;;;;;;4983644;28;20604;-67
2020/12/05 00:38:41;;;;;;;48.78;25.38;;;0.00;95.30;;;;;;4983247;28;20027;-67
2020/12/05 00:41:07;;;;;;;46.10;25.02;;;-3276.70;95.30;;;;;;4982605;28;20045;-68
2020/12/05 00:43:34;;;;;;;47.10;25.83;;;-3276.60;95.40;;;;;;4983485;28;20053;-68
2020/12/05 00:46:02;;;;;;;42.78;24.33;;;-3276.60;95.70;;;;;;4975554;28;20248;-68
2020/12/05 00:48:28;;;;;;;50.13;25.75;;;-3276.60;95.50;;;;;;4978763;28;20062;-67
2020/12/05 00:50:53;;;;;;;48.78;25.50;;;-3276.60;95.70;;;;;;4984711;28;20160;-67
2020/12/05 00:53:19;;;;;;;49.47;26.05;;;-3276.60;95.90;;;;;;4983588;28;20038;-67
2020/12/05 00:55:45;;;;;;;54.88;26.95;;;-3276.60;95.80;;;;;;4983835;28;20030;-68
2020/12/05 00:58:12;;;;;;;49.97;26.08;;;-3276.60;95.90;;;;;;4984545;28;20420;-68
2020/12/05 01:00:38;;;;;;;48.58;25.33;;;-3276.70;95.90;;;;;;4983379;28;20397;-67
2020/12/05 01:03:03;;;;;;;48.33;25.70;;;-3276.60;95.80;;;;;;4973219;28;20070;-68
2020/12/05 01:05:29;;;;;;;44.10;23.85;;;-3276.60;95.80;;;;;;4983076;28;20034;-67
2020/12/05 01:07:55;;;;;;;44.78;24.58;;;-3276.60;95.80;;;;;;4983091;28;20046;-67
2020/12/05 01:10:22;;;;;;;45.53;24.50;;;-3276.60;95.80;;;;;;4975246;28;20038;-67
2020/12/05 01:12:48;;;;;;;45.25;25.33;;;-3276.60;95.90;;;;;;4973881;28;20034;-68
2020/12/05 01:15:14;;;;;;;51.28;25.90;;;-3276.50;95.90;;;;;;4982007;28;20525;-67
2020/12/05 01:17:39;;;;;;;49.05;25.25;;;-3276.50;95.90;;;;;;4982379;28;20463;-67
2020/12/05 01:20:06;;;;;;;50.78;26.45;;;-3276.40;95.90;;;;;;4982604;28;20455;-68
2020/12/05 01:22:32;;;;;;;54.10;26.17;;;-3276.40;96.00;;;;;;4970532;28;20037;-68
2020/12/05 01:24:58;;;;;;;54.97;25.90;;;-3276.40;96.10;;;;;;4972754;28;20467;-68
2020/12/05 01:27:24;;;;;;;54.10;26.38;;;-3276.40;96.10;;;;;;4982393;28;20048;-67
2020/12/05 01:29:50;;;;;;;51.22;26.98;;;-3276.40;96.20;;;;;;4982661;28;20023;-66
2020/12/05 01:32:15;;;;;;;58.22;26.15;;;-3276.50;96.20;;;;;;4976102;28;20096;-68
2020/12/05 01:34:42;;;;;;;52.97;26.98;;;-3276.50;96.20;;;;;;4970147;28;20026;-68
2020/12/05 01:37:07;;;;;;;56.45;26.27;;;-3276.50;96.30;;;;;;4967484;28;20106;-67
2020/12/05 01:39:33;;;;;;;60.05;28.05;;;-3276.50;96.30;;;;;;4982904;28;20125;-67
2020/12/05 01:41:59;;;;;;;51.15;26.55;;;-3276.50;96.30;;;;;;4981511;28;20030;-67
2020/12/05 01:44:25;;;;;;;51.50;26.58;;;-3276.60;96.30;;;;;;4982177;28;20030;-68
2020/12/05 01:46:52;;;;;;;51.03;26.90;;;-3276.60;96.30;;;;;;4980419;28;20348;-67
2020/12/05 01:49:20;;;;;;;49.80;25.73;;;-3276.60;96.30;;;;;;4979114;28;20327;-68
2020/12/05 01:51:46;;;;;;;56.67;26.15;;;-3276.70;96.30;;;;;;4982302;28;20118;-67
2020/12/05 01:54:12;;;;;;;58.72;27.40;;;-3276.60;96.20;;;;;;4980666;28;20022;-68
2020/12/05 01:56:41;;;;;;;53.00;26.77;;;-3276.60;96.10;;;;;;4993726;28;20103;-67
2020/12/05 01:59:07;;;;;;;50.25;25.98;;;-3276.70;96.20;;;;;;4983153;28;20038;-69
2020/12/05 02:01:33;;;;;;;51.22;27.65;;;-3276.60;96.10;;;;;;4982183;28;20096;-67
2020/12/05 02:04:01;;;;;;;50.45;27.02;;;-3276.70;96.20;;;;;;4982870;28;20026;-67
2020/12/05 02:07:06;;;;;;;51.67;27.65;;;-3276.70;96.20;;;;;;4981257;28;20098;-67
2020/12/05 02:09:38;;;;;;;56.92;27.73;;;-3276.70;96.30;;;;;;4971275;28;20100;-68
2020/12/05 02:12:27;;;;;;;51.67;28.00;;;0.00;96.20;;;;;;4970794;28;20022;-67
2020/12/05 02:15:01;;;;;;;50.35;26.27;;;0.00;96.20;;;;;;4982994;28;20027;-67
2020/12/05 02:17:29;;;;;;;51.97;28.17;;;0.00;96.10;;;;;;4983575;28;20035;-68
2020/12/05 02:19:55;;;;;;;55.33;28.83;;;0.00;96.10;;;;;;5014628;28;20035;-68
2020/12/05 02:22:37;;;;;;;58.17;28.50;;;0.10;96.10;;;;;;4977869;28;20074;-67
2020/12/05 02:25:03;;;;;;;53.20;28.13;;;0.10;95.80;;;;;;4982812;28;20107;-67
2020/12/05 02:27:33;;;;;;;54.35;28.65;;;0.10;95.80;;;;;;4984816;28;20360;-67
2020/12/05 02:29:59;;;;;;;46.90;27.73;;;0.20;95.80;;;;;;4985075;28;20042;-69
2020/12/05 02:32:24;;;;;;;53.22;28.33;;;0.20;95.60;;;;;;4985378;28;20111;-67
2020/12/05 02:34:50;;;;;;;54.08;27.95;;;0.20;95.60;;;;;;4980891;28;20030;-67
2020/12/05 02:37:21;;;;;;;51.08;27.75;;;0.20;95.60;;;;;;4980814;28;20037;-68
2020/12/05 02:39:48;;;;;;;49.13;28.27;;;0.20;95.50;;;;;;4985522;28;20105;-67
2020/12/05 02:42:14;;;;;;;50.30;27.67;;;0.30;95.60;;;;;;4984474;28;20046;-67
2020/12/05 02:44:53;;;;;;;52.90;28.10;;;0.30;95.50;;;;;;4984523;28;20091;-68
2020/12/05 02:47:20;;;;;;;48.13;26.73;;;0.30;95.50;;;;;;4986474;28;20050;-68
2020/12/05 02:49:46;;;;;;;48.80;27.13;;;0.30;95.50;;;;;;4986972;28;20091;-67
2020/12/05 02:52:12;;;;;;;47.50;27.92;;;0.30;95.40;;;;;;4982875;28;20031;-67
2020/12/05 02:54:38;;;;;;;47.75;27.38;;;0.30;95.30;;;;;;4985085;28;20514;-66
2020/12/05 02:57:04;;;;;;;52.88;28.20;;;0.30;95.30;;;;;;4985053;28;20113;-66
2020/12/05 02:59:30;;;;;;;45.22;26.90;;;0.30;95.30;;;;;;4985557;28;20276;-66
2020/12/05 03:01:56;;;;;;;45.30;26.05;;;0.30;95.30;;;;;;4984508;28;20030;-66
2020/12/05 03:04:22;;;;;;;49.33;28.10;;;0.30;95.20;;;;;;4981786;28;20247;-66
2020/12/05 03:06:48;;;;;;;49.22;27.67;;;0.30;95.30;;;;;;4983719;28;20471;-66
2020/12/05 03:09:14;;;;;;;53.38;27.40;;;0.30;95.30;;;;;;4984268;28;20033;-66
2020/12/05 03:11:40;;;;;;;45.83;24.73;;;0.30;95.30;;;;;;4982216;28;20030;-66
2020/12/05 03:14:06;;;;;;;48.78;26.83;;;0.30;95.30;;;;;;4982546;28;20031;-66
2020/12/05 03:16:32;;;;;;;44.45;26.05;;;0.30;95.30;;;;;;4976110;28;20022;-66
2020/12/05 03:18:58;;;;;;;45.85;26.55;;;0.30;95.30;;;;;;4973624;28;20083;-66
2020/12/05 03:21:23;;;;;;;44.08;26.55;;;0.30;95.30;;;;;;4985251;28;20030;-66
2020/12/05 03:23:49;;;;;;;50.58;26.20;;;0.40;95.30;;;;;;4984796;28;20096;-66
2020/12/05 03:26:15;;;;;;;43.65;25.90;;;0.30;95.30;;;;;;4996741;28;20399;-66
2020/12/05 03:28:41;;;;;;;46.35;26.10;;;0.30;95.30;;;;;;4984171;28;20037;-66
2020/12/05 03:31:10;;;;;;;48.95;27.48;;;0.30;95.40;;;;;;4984658;28;20022;-66
2020/12/05 03:33:37;;;;;;;47.38;26.88;;;0.40;95.40;;;;;;4984008;28;20034;-66
2020/12/05 03:36:03;;;;;;;44.80;25.55;;;0.30;95.30;;;;;;4984223;28;20070;-66
2020/12/05 03:38:29;;;;;;;41.58;24.48;;;0.30;95.40;;;;;;4981304;28;20097;-66
2020/12/05 03:40:54;;;;;;;46.65;27.58;;;0.30;95.30;;;;;;4985391;28;20173;-66
2020/12/05 03:43:20;;;;;;;46.28;25.38;;;0.40;95.30;;;;;;4983508;28;20049;-66
2020/12/05 03:45:45;;;;;;;48.40;26.88;;;0.30;95.30;;;;;;4984720;28;20028;-66
2020/12/05 03:48:12;;;;;;;46.53;27.08;;;0.40;95.30;;;;;;4984427;28;20498;-66
2020/12/05 03:50:39;;;;;;;40.53;25.70;;;0.30;95.30;;;;;;4979853;28;20027;-66
2020/12/05 03:53:04;;;;;;;46.85;27.42;;;0.40;95.40;;;;;;4968708;28;20042;-66
2020/12/05 03:55:30;;;;;;;45.00;25.58;;;0.40;95.30;;;;;;4968852;28;20069;-66
2020/12/05 03:57:56;;;;;;;48.95;26.60;;;0.40;95.30;;;;;;4980236;28;20026;-66
2020/12/05 04:00:21;;;;;;;44.05;25.25;;;0.40;95.20;;;;;;4982723;28;20461;-65
2020/12/05 04:02:47;;;;;;;48.70;26.98;;;0.40;95.20;;;;;;4984277;28;20038;-66
2020/12/05 04:05:12;;;;;;;44.50;25.63;;;0.40;95.20;;;;;;4984754;28;20468;-66
2020/12/05 04:07:38;;;;;;;44.22;25.73;;;0.40;95.10;;;;;;4983447;28;20079;-66
2020/12/05 04:10:04;;;;;;;41.45;26.13;;;0.40;95.10;;;;;;4984471;28;20045;-66
2020/12/05 04:12:29;;;;;;;47.42;25.92;;;0.50;95.00;;;;;;4984074;28;20164;-65
2020/12/05 04:14:55;;;;;;;45.35;26.02;;;0.50;95.00;;;;;;4983216;28;20109;-66
2020/12/05 04:17:21;;;;;;;45.25;25.95;;;0.50;95.10;;;;;;4984003;28;20034;-65
2020/12/05 04:19:48;;;;;;;44.55;26.13;;;0.50;95.00;;;;;;4984447;28;20053;-66
2020/12/05 04:22:14;;;;;;;46.40;26.15;;;0.50;95.00;;;;;;4980841;28;20026;-66
2020/12/05 04:24:40;;;;;;;48.22;26.15;;;0.50;95.00;;;;;;5010570;28;20032;-67
2020/12/05 04:27:06;;;;;;;47.10;27.60;;;0.50;95.10;;;;;;5048685;28;20018;-66
2020/12/05 04:29:31;;;;;;;46.35;26.63;;;0.50;95.10;;;;;;4984425;28;20085;-67
2020/12/05 04:31:57;;;;;;;45.47;25.90;;;0.50;95.10;;;;;;4983410;28;20162;-66
2020/12/05 04:34:22;;;;;;;44.45;26.33;;;0.50;95.10;;;;;;4977782;28;20057;-66
2020/12/05 04:36:48;;;;;;;47.65;26.42;;;0.60;95.10;;;;;;4974143;28;20462;-66
2020/12/05 04:39:13;;;;;;;47.58;27.42;;;0.60;95.10;;;;;;4983894;28;20035;-66
2020/12/05 04:41:41;;;;;;;46.22;26.05;;;0.50;95.00;;;;;;4983569;28;20030;-67
2020/12/05 04:44:09;;;;;;;45.22;25.85;;;0.50;94.90;;;;;;4980913;28;20030;-66
2020/12/05 04:46:35;;;;;;;46.38;26.83;;;0.60;94.90;;;;;;4982051;28;20018;-66
2020/12/05 04:49:01;;;;;;;44.40;25.95;;;0.60;94.90;;;;;;4972126;28;20050;-66
2020/12/05 04:51:36;;;;;;;47.28;27.50;;;0.60;94.90;;;;;;4984853;28;20370;-66
2020/12/05 04:54:06;;;;;;;46.15;26.30;;;0.60;95.00;;;;;;4982642;28;20030;-66
2020/12/05 04:56:37;;;;;;;45.85;26.33;;;0.60;95.00;;;;;;4993528;28;20030;-66
2020/12/05 04:59:09;;;;;;;45.45;25.63;;;0.60;95.00;;;;;;4979980;28;20077;-66
2020/12/05 05:01:36;;;;;;;45.63;25.65;;;0.60;95.00;;;;;;4984123;28;20027;-65
2020/12/05 05:04:03;;;;;;;46.65;25.88;;;0.60;94.90;;;;;;4982491;28;20035;-66
2020/12/05 05:06:29;;;;;;;45.30;27.13;;;0.60;94.90;;;;;;4973270;28;20019;-66
2020/12/05 05:08:54;;;;;;;47.92;26.60;;;0.60;94.90;;;;;;4979352;28;20087;-66
2020/12/05 05:11:20;;;;;;;46.85;26.08;;;0.60;94.80;;;;;;4980563;28;20332;-66
2020/12/05 05:13:49;;;;;;;43.58;26.08;;;0.70;94.80;;;;;;4976657;28;20072;-66
2020/12/05 05:16:15;;;;;;;42.10;25.33;;;0.70;94.80;;;;;;4971887;28;20137;-66
2020/12/05 05:18:41;;;;;;;46.10;27.25;;;0.70;94.80;;;;;;4981083;28;20030;-67
2020/12/05 05:21:07;;;;;;;49.17;26.30;;;0.70;94.80;;;;;;4984018;28;20030;-67
2020/12/05 05:23:33;;;;;;;46.60;27.98;;;0.80;95.00;;;;;;4982595;28;20114;-66
2020/12/05 05:26:00;;;;;;;46.35;26.52;;;0.80;95.10;;;;;;4982216;28;20030;-66
2020/12/05 05:28:32;;;;;;;43.08;25.45;;;0.80;94.90;;;;;;4986488;28;20105;-66
2020/12/05 05:31:02;;;;;;;47.42;26.73;;;0.80;94.90;;;;;;4983034;28;20106;-67
2020/12/05 05:33:37;;;;;;;50.75;27.15;;;0.80;94.90;;;;;;4982190;28;20505;-66
2020/12/05 05:36:17;;;;;;;45.83;26.52;;;0.80;95.00;;;;;;4982281;28;20046;-66
2020/12/05 05:38:43;;;;;;;46.65;26.42;;;0.80;95.10;;;;;;4976475;28;20110;-67
2020/12/05 05:41:17;;;;;;;44.53;22.58;;;0.70;95.20;;;;;;4984686;28;20259;-67
2020/12/05 05:44:02;;;;;;;44.22;25.65;;;0.70;95.30;;;;;;4982566;28;20506;-66
2020/12/05 05:46:33;;;;;;;49.03;28.17;;;0.70;95.40;;;;;;4982348;28;20105;-66
2020/12/05 05:49:00;;;;;;;44.85;25.13;;;0.60;95.50;;;;;;4982814;28;20087;-66
2020/12/05 05:51:45;;;;;;;52.15;27.65;;;0.60;95.60;;;;;;4971304;28;20448;-67
2020/12/05 05:54:15;;;;;;;46.65;27.63;;;0.60;95.60;;;;;;4982182;28;20197;-66
2020/12/05 05:56:54;;;;;;;53.60;29.47;;;0.60;95.60;;;;;;4980350;28;20023;-66
2020/12/05 05:59:21;;;;;;;46.40;27.13;;;0.70;95.80;;;;;;4997841;28;20098;-66
2020/12/05 06:01:49;;;;;;;52.53;29.52;;;0.60;95.70;;;;;;4973157;28;20058;-66
2020/12/05 06:04:31;;;;;;;52.25;29.52;;;0.60;95.70;;;;;;4983010;28;20026;-67
2020/12/05 06:06:59;;;;;;;45.65;27.65;;;0.60;95.70;;;;;;4979821;28;20036;-66
2020/12/05 06:09:35;;;;;;;52.28;28.80;;;0.60;95.70;;;;;;4983403;28;20031;-66
2020/12/05 06:12:03;;;;;;;53.90;29.75;;;0.60;95.70;;;;;;4975961;28;20027;-66
2020/12/05 06:14:29;;;;;;;52.83;30.08;;;0.50;95.80;;;;;;4982969;28;20431;-67
2020/12/05 06:16:56;;;;;;;51.47;30.45;;;0.50;95.90;;;;;;4978632;28;20034;-66
2020/12/05 06:19:24;;;;;;;61.47;31.27;;;0.60;96.00;;;;;;4973330;28;20019;-66
2020/12/05 06:21:55;;;;;;;54.92;29.92;;;0.60;96.10;;;;;;4969595;28;20121;-66
2020/12/05 06:24:43;;;;;;;56.63;30.45;;;0.60;96.10;;;;;;4983652;28;20096;-67
2020/12/05 06:27:09;;;;;;;55.08;29.73;;;0.60;96.10;;;;;;4986181;28;20072;-66
2020/12/05 06:29:39;;;;;;;53.72;31.55;;;0.60;96.10;;;;;;4985166;28;20080;-66
2020/12/05 06:32:05;;;;;;;56.33;31.25;;;0.60;96.10;;;;;;4980026;28;20122;-66
2020/12/05 06:34:41;;;;;;;53.78;29.70;;;0.60;96.10;;;;;;4975787;28;20031;-66
2020/12/05 06:37:08;;;;;;;57.72;30.45;;;0.60;96.20;;;;;;4983846;28;20026;-66
2020/12/05 06:39:34;;;;;;;58.95;30.27;;;0.60;96.10;;;;;;4985399;28;20478;-66
2020/12/05 06:42:00;;;;;;;55.97;30.80;;;0.60;96.10;;;;;;4981286;28;20105;-67
2020/12/05 06:44:31;;;;;;;56.45;29.40;;;0.60;96.10;;;;;;4984386;28;20031;-66
2020/12/05 06:47:00;;;;;;;52.63;30.65;;;0.60;96.10;;;;;;4984195;28;20083;-66
2020/12/05 06:49:37;;;;;;;56.55;31.33;;;0.60;96.10;;;;;;4985862;28;20022;-66
2020/12/05 06:52:25;;;;;;;56.58;31.50;;;0.60;96.00;;;;;;4986060;28;20026;-66
2020/12/05 06:54:57;;;;;;;53.38;29.33;;;0.60;96.10;;;;;;4987333;28;20038;-66
2020/12/05 06:57:31;;;;;;;57.03;30.27;;;0.60;96.10;;;;;;4984996;28;20034;-66
2020/12/05 07:00:19;;;;;;;54.75;30.45;;;0.60;96.10;;;;;;4985510;28;20075;-66
2020/12/05 07:02:51;;;;;;;59.20;31.13;;;0.60;96.20;;;;;;4974409;28;20294;-67
2020/12/05 07:05:20;;;;;;;57.53;32.25;;;0.60;96.20;;;;;;4964977;28;20054;-66
2020/12/05 07:07:50;;;;;;;58.42;31.70;;;0.60;96.20;;;;;;4980976;28;20095;-66
2020/12/05 07:10:17;;;;;;;60.83;32.60;;;0.60;96.20;;;;;;4984281;28;20077;-66
2020/12/05 07:12:43;;;;;;;58.67;33.50;;;0.50;96.20;;;;;;4977610;28;20026;-66
2020/12/05 07:15:20;;;;;;;60.67;31.63;;;0.50;96.20;;;;;;4984090;28;20240;-66
2020/12/05 07:17:46;;;;;;;59.30;32.25;;;0.60;96.30;;;;;;4981535;28;20029;-67
2020/12/05 07:20:11;;;;;;;55.75;32.13;;;0.60;96.30;;;;;;4984125;28;20343;-66
2020/12/05 07:22:37;;;;;;;58.67;32.15;;;0.60;96.20;;;;;;4978874;28;20218;-66
2020/12/05 07:25:03;;;;;;;60.05;33.53;;;0.60;96.20;;;;;;4969920;28;20509;-66
2020/12/05 07:27:29;;;;;;;60.05;32.85;;;0.60;96.20;;;;;;4981975;28;20503;-65
2020/12/05 07:29:55;;;;;;;61.70;32.78;;;0.60;96.20;;;;;;4984407;28;20037;-66
2020/12/05 07:32:20;;;;;;;57.60;32.30;;;0.60;96.20;;;;;;4980287;28;20321;-66
2020/12/05 07:34:46;;;;;;;57.00;30.77;;;0.60;96.20;;;;;;4980963;28;20042;-66
2020/12/05 07:37:28;;;;;;;54.75;29.65;;;0.60;96.10;;;;;;4980796;28;20072;-66
2020/12/05 07:39:54;;;;;;;56.47;31.25;;;0.60;96.20;;;;;;4983981;28;20041;-66
2020/12/05 07:42:21;;;;;;;61.40;32.50;;;0.50;96.10;;;;;;4984759;28;20486;-66
2020/12/05 07:44:47;;;;;;;58.88;31.05;;;0.60;96.20;;;;;;4982753;28;20144;-66
2020/12/05 07:47:19;;;;;;;59.15;31.17;;;0.60;96.20;;;;;;4976316;28;20458;-65
2020/12/05 07:49:55;;;;;;;54.50;30.92;;;0.60;96.20;;;;;;4971518;28;20014;-67
2020/12/05 07:52:21;;;;;;;57.85;31.33;;;0.60;96.20;;;;;;4978210;28;20235;-67
2020/12/05 07:54:58;;;;;;;69.25;32.58;;;0.60;96.20;;;;;;4974893;28;20103;-66
2020/12/05 07:57:35;;;;;;;56.70;30.90;;;0.60;96.10;;;;;;4975315;28;20117;-65
2020/12/05 08:00:14;;;;;;;56.97;31.08;;;0.70;96.10;;;;;;4984141;28;20145;-67
2020/12/05 08:02:59;;;;;;;53.97;31.13;;;0.70;96.10;;;;;;4982190;28;20631;-67
2020/12/05 08:05:44;;;;;;;55.45;31.08;;;0.70;96.10;;;;;;4981469;28;20121;-65
2020/12/05 08:08:14;;;;;;;59.83;32.08;;;0.70;96.10;;;;;;4983588;28;20094;-67
2020/12/05 08:10:40;;;;;;;62.67;32.70;;;0.70;96.00;;;;;;4983614;28;20034;-65
2020/12/05 08:13:18;;;;;;;55.08;30.80;;;0.70;96.00;;;;;;4973344;28;20395;-65
2020/12/05 08:15:45;;;;;;;58.83;29.63;;;0.70;96.00;;;;;;4982293;28;20034;-67
2020/12/05 08:18:13;;;;;;;56.72;32.47;;;0.80;96.00;;;;;;4981076;28;20032;-66
2020/12/05 08:20:44;;;;;;;56.47;31.80;;;0.80;96.00;;;;;;4984435;28;20105;-66
2020/12/05 08:23:23;;;;;;;40.88;23.77;;;0.80;96.00;;;;;;4983041;28;20121;-67
2020/12/05 08:25:50;;;;;;;55.50;28.95;;;0.80;95.80;;;;;;4981761;28;20042;-67
2020/12/05 08:28:18;;;;;;;54.78;31.65;;;0.90;95.80;;;;;;4978605;28;20044;-66
2020/12/05 08:30:46;;;;;;;58.17;30.52;;;0.90;95.80;;;;;;4983600;28;20027;-66
2020/12/05 08:33:12;;;;;;;56.13;30.95;;;0.90;95.80;;;;;;4976606;28;20049;-67
2020/12/05 08:35:38;;;;;;;50.55;29.27;;;0.90;95.70;;;;;;4974323;28;20030;-66
2020/12/05 08:38:04;;;;;;;50.60;28.25;;;0.90;95.60;;;;;;4983425;28;20084;-66
2020/12/05 08:40:30;;;;;;;48.10;28.02;;;1.00;95.60;;;;;;4983005;28;20380;-66
2020/12/05 08:42:57;;;;;;;53.35;29.73;;;0.90;95.60;;;;;;4982792;28;20105;-66
2020/12/05 08:45:23;;;;;;;52.42;29.77;;;1.00;95.50;;;;;;4983285;28;20053;-65
2020/12/05 08:47:53;;;;;;;55.53;30.52;;;1.00;95.40;;;;;;4978404;28;20027;-66
2020/12/05 08:50:37;;;;;;;46.45;28.35;;;1.00;95.50;;;;;;4978012;28;20113;-66
2020/12/05 08:53:03;;;;;;;48.75;28.35;;;1.00;95.10;;;;;;4970515;28;20030;-66
2020/12/05 08:55:30;;;;;;;51.95;29.02;;;1.00;95.30;;;;;;4966610;28;20034;-66
2020/12/05 09:03:20;;;;;;;49.30;28.65;;;1.10;95.20;;;;;;5572063;23;20242;-66
2020/12/05 09:05:47;;;;;;;45.42;26.80;;;1.10;95.20;;;;;;4953039;28;20610;-66
2020/12/05 09:08:19;;;;;;;49.17;27.98;;;1.20;95.20;;;;;;4965302;28;20066;-66
2020/12/05 09:10:45;;;;;;;48.00;28.58;;;1.20;95.10;;;;;;4969002;28;20050;-67
2020/12/05 09:13:11;;;;;;;47.58;27.13;;;1.30;95.00;;;;;;4955727;28;20125;-67
2020/12/05 09:15:37;;;;;;;47.42;28.77;;;1.30;95.10;;;;;;4951424;28;20032;-68
2020/12/05 09:18:03;;;;;;;45.50;26.63;;;1.40;95.00;;;;;;4959642;28;20389;-68
2020/12/05 09:20:28;;;;;;;47.33;27.25;;;1.40;94.80;;;;;;4976624;28;20030;-66
2020/12/05 09:22:59;;;;;;;42.22;26.88;;;1.50;94.70;;;;;;4968506;28;20119;-66
2020/12/05 09:25:32;;;;;;;43.00;26.42;;;1.60;94.60;;;;;;4962168;28;20023;-66
2020/12/05 09:27:59;;;;;;;41.92;26.33;;;1.50;94.70;;;;;;4960464;28;20030;-66
2020/12/05 09:30:28;;;;;;;43.88;25.25;;;1.50;94.70;;;;;;4960229;28;20062;-66
2020/12/05 09:32:53;;;;;;;42.40;25.08;;;1.60;94.70;;;;;;4959861;28;20026;-67
2020/12/05 09:35:22;;;;;;;43.30;26.63;;;1.60;94.60;;;;;;4964327;28;20039;-64
2020/12/05 09:37:48;;;;;;;40.00;23.67;;;1.60;94.50;;;;;;4965841;28;20121;-68
2020/12/05 09:40:16;;;;;;;38.58;23.65;;;1.70;94.60;;;;;;4972041;28;20030;-67
2020/12/05 09:42:44;;;;;;;39.22;24.20;;;1.70;94.50;;;;;;4966755;28;20023;-66
2020/12/05 09:45:11;;;;;;;41.53;24.00;;;1.70;94.50;;;;;;4983564;28;20105;-66
2020/12/05 09:47:38;;;;;;;38.17;24.35;;;1.70;94.30;;;;;;4966466;28;20023;-67
2020/12/05 09:50:05;;;;;;;36.28;23.48;;;1.70;94.30;;;;;;4967054;28;20026;-66
2020/12/05 09:52:31;;;;;;;37.55;22.92;;;1.80;94.30;;;;;;4955615;28;20041;-66
2020/12/05 09:54:57;;;;;;;37.47;23.20;;;1.80;94.50;;;;;;4973452;28;20412;-66
2020/12/05 09:57:23;;;;;;;36.92;22.45;;;1.90;94.30;;;;;;4960885;28;20166;-66
2020/12/05 09:59:48;;;;;;;38.08;22.80;;;2.00;94.50;;;;;;4957530;28;20375;-66
2020/12/05 10:02:14;;;;;;;37.42;23.08;;;2.10;94.60;;;;;;4957135;28;20144;-68
2020/12/05 10:04:39;;;;;;;37.80;22.60;;;2.10;94.50;;;;;;4968409;28;20034;-66
2020/12/05 10:07:06;;;;;;;34.78;21.35;;;2.10;94.60;;;;;;4960645;28;20019;-66
2020/12/05 10:09:32;;;;;;;33.72;21.67;;;2.10;94.40;;;;;;4958643;28;20050;-67
2020/12/05 10:11:58;;;;;;;37.90;22.05;;;2.20;94.50;;;;;;4946064;28;20605;-67
2020/12/05 10:14:23;;;;;;;35.25;22.88;;;2.30;94.30;;;;;;4978665;28;20164;-66
2020/12/05 10:16:49;;;;;;;34.33;22.17;;;2.50;94.40;;;;;;4960500;28;20030;-66
2020/12/05 10:19:14;;;;;;;36.35;20.60;;;2.50;94.10;;;;;;4959369;28;20062;-65
2020/12/05 10:21:44;;;;;;;32.30;20.20;;;2.60;94.00;;;;;;4959633;28;20108;-66
2020/12/05 10:24:09;;;;;;;32.00;21.13;;;2.50;93.70;;;;;;4966006;28;20392;-66
2020/12/05 10:26:35;;;;;;;34.25;20.65;;;2.60;94.30;;;;;;4983125;28;20105;-66
2020/12/05 10:29:00;;;;;;;32.88;20.63;;;2.60;94.20;;;;;;4959552;28;20031;-67
2020/12/05 10:31:26;;;;;;;33.15;20.70;;;2.70;94.20;;;;;;4944579;28;20119;-67
2020/12/05 10:33:51;;;;;;;31.95;20.60;;;2.70;94.10;;;;;;4959892;28;20046;-66
2020/12/05 10:36:20;;;;;;;32.33;20.27;;;2.90;94.50;;;;;;4952598;28;20621;-66
2020/12/05 10:38:46;;;;;;;32.83;20.55;;;2.90;94.20;;;;;;4963062;28;20035;-66
2020/12/05 10:41:13;;;;;;;33.83;19.48;;;2.90;94.30;;;;;;4973067;28;20026;-67
2020/12/05 10:43:38;;;;;;;32.17;20.00;;;3.00;94.00;;;;;;4967594;28;20513;-66
2020/12/05 10:46:04;;;;;;;30.10;18.40;;;3.00;93.80;;;;;;4978959;28;20030;-66
2020/12/05 10:48:30;;;;;;;30.00;18.67;;;3.10;94.00;;;;;;4967903;28;20145;-67
2020/12/05 10:50:59;;;;;;;30.77;19.60;;;3.10;94.10;;;;;;4956296;28;20100;-66
2020/12/05 10:53:25;;;;;;;28.10;18.38;;;3.10;94.00;;;;;;4949207;28;20317;-66
2020/12/05 10:55:52;;;;;;;29.10;18.08;;;3.10;93.80;;;;;;4960592;28;20409;-68
2020/12/05 10:58:18;;;;;;;31.13;19.30;;;3.00;94.00;;;;;;4968469;28;20027;-67
2020/12/05 11:00:43;;;;;;;28.42;18.05;;;3.00;94.10;;;;;;4965353;28;20041;-67
2020/12/05 11:03:09;;;;;;;30.55;19.35;;;3.10;94.30;;;;;;4965884;28;20058;-68
2020/12/05 11:05:34;;;;;;;32.92;18.95;;;3.10;94.20;;;;;;4966956;28;20050;-67
2020/12/05 11:08:00;;;;;;;28.70;17.92;;;3.10;93.90;;;;;;4961969;28;20034;-67
2020/12/05 11:10:25;;;;;;;28.80;18.77;;;3.20;94.00;;;;;;4956911;28;20100;-67
2020/12/05 11:12:51;;;;;;;28.17;18.10;;;3.30;93.80;;;;;;4968471;28;20181;-68
2020/12/05 11:15:17;;;;;;;31.65;19.40;;;3.30;93.80;;;;;;4966144;28;20035;-67
2020/12/05 11:17:42;;;;;;;24.75;18.05;;;3.40;93.80;;;;;;4962958;28;20101;-68
2020/12/05 11:20:08;;;;;;;28.17;17.10;;;3.40;93.70;;;;;;4963161;28;20031;-68
2020/12/05 11:22:33;;;;;;;28.55;17.42;;;3.30;93.80;;;;;;4966824;28;20027;-69
2020/12/05 11:24:59;;;;;;;31.33;18.00;;;3.40;94.00;;;;;;4889392;28;20109;-67
2020/12/05 11:27:25;;;;;;;29.55;16.70;;;3.40;94.20;;;;;;4959372;28;20130;-67
2020/12/05 11:29:51;;;;;;;28.10;17.52;;;3.50;94.00;;;;;;4963236;28;20466;-68
2020/12/05 11:32:17;;;;;;;28.52;17.27;;;3.60;94.20;;;;;;4958579;28;20370;-68
2020/12/05 11:34:42;;;;;;;29.65;17.70;;;3.60;94.20;;;;;;4959919;28;20073;-67
2020/12/05 11:37:08;;;;;;;28.48;17.23;;;3.60;94.00;;;;;;4966645;28;20042;-67
2020/12/05 11:39:33;;;;;;;27.17;17.40;;;3.60;94.10;;;;;;4966030;28;20029;-67
2020/12/05 11:41:59;;;;;;;26.60;17.00;;;3.60;94.10;;;;;;4966161;28;20058;-65
2020/12/05 11:44:25;;;;;;;28.58;17.33;;;3.60;94.20;;;;;;4962556;28;20018;-68
2020/12/05 11:46:50;;;;;;;27.90;16.88;;;3.60;94.10;;;;;;4975738;28;20058;-67
2020/12/05 11:49:17;;;;;;;25.83;17.13;;;3.60;94.40;;;;;;4968303;28;20023;-67
2020/12/05 11:51:42;;;;;;;25.63;16.67;;;3.60;94.30;;;;;;4959477;28;20558;-67
2020/12/05 11:54:08;;;;;;;29.45;17.42;;;3.70;94.40;;;;;;4963643;28;20074;-68
2020/12/05 11:56:33;;;;;;;26.25;16.77;;;3.70;94.40;;;;;;4959009;28;20035;-67
2020/12/05 11:58:59;;;;;;;29.48;17.33;;;3.80;94.30;;;;;;4970106;28;20512;-66
2020/12/05 12:01:25;;;;;;;28.80;16.75;;;3.80;94.30;;;;;;4977198;28;20023;-67
2020/12/05 12:03:50;;;;;;;27.02;17.05;;;4.00;94.20;;;;;;4953362;28;20351;-67
2020/12/05 12:06:19;;;;;;;27.95;17.15;;;4.00;94.00;;;;;;4967281;28;20072;-66
2020/12/05 12:08:45;;;;;;;23.95;16.23;;;4.10;93.90;;;;;;4960191;28;20029;-67
2020/12/05 12:11:19;;;;;;;27.58;17.13;;;4.10;93.80;;;;;;4954044;28;20039;-66
2020/12/05 12:13:45;;;;;;;24.48;16.05;;;4.00;93.60;;;;;;4954753;28;20189;-66
2020/12/05 12:16:15;;;;;;;23.50;16.27;;;4.00;93.90;;;;;;4950553;28;20178;-67
2020/12/05 12:18:41;;;;;;;27.42;16.48;;;4.00;93.80;;;;;;4952330;28;20625;-68
2020/12/05 12:21:07;;;;;;;26.20;15.45;;;4.10;93.90;;;;;;4947975;28;20188;-66
2020/12/05 12:23:32;;;;;;;24.75;15.73;;;4.20;93.70;;;;;;4951886;28;20035;-69
2020/12/05 12:25:58;;;;;;;23.50;14.43;;;4.30;93.60;;;;;;4951153;28;20061;-67
2020/12/05 12:28:24;;;;;;;22.63;14.95;;;4.30;93.40;;;;;;4950206;28;20423;-67
2020/12/05 12:30:50;;;;;;;21.50;14.35;;;4.10;93.30;;;;;;4948841;28;20086;-69
2020/12/05 12:33:16;;;;;;;24.60;14.75;;;4.20;93.50;;;;;;4947558;28;20422;-68
2020/12/05 12:35:44;;;;;;;22.10;14.77;;;4.20;93.70;;;;;;4951312;28;20034;-68
2020/12/05 12:38:10;;;;;;;24.40;15.48;;;4.30;93.60;;;;;;4952039;28;20136;-67
2020/12/05 12:40:36;;;;;;;24.33;14.15;;;4.30;93.60;;;;;;4948771;28;20027;-67